Time;durP1;ratioP1;P1;durP2;ratioP2;P2;SDS_P1;SDS_P2;PMS_P1;PMS_P2;Temp;Humidity;BMP_temperature;BMP_pressure;BME280_temperature;BME280_humidity;BME280_pressure;Samples;Min_cycle;Max_cycle;Signal;HPM_P1;HPM_P2
2023/08/01 00:02:19;;;;;;;15.08;13.72;;;;;;;17.88;70.56;99485.23;1713912;83;25515;-63
2023/08/01 00:04:46;;;;;;;12.37;9.63;;;;;;;17.88;70.51;99480.34;1713834;83;27698;-63
2023/08/01 00:07:13;;;;;;;55.30;51.30;;;;;;;17.87;70.64;99483.64;1713935;83;25484;-63
2023/08/01 00:09:40;;;;;;;86.95;81.47;;;;;;;17.87;70.45;99482.87;1713973;83;27340;-63
2023/08/01 00:12:09;;;;;;;33.65;31.40;;;;;;;17.85;70.71;99476.38;1713785;83;25392;-63
2023/08/01 00:14:38;;;;;;;8.48;5.42;;;;;;;17.83;70.91;99484.17;1691527;83;30150;-63
2023/08/01 00:17:07;;;;;;;84.58;79.45;;;;;;;17.83;70.91;99484.17;1679921;83;31551;-64
2023/08/01 00:19:34;;;;;;;57.48;54.05;;;;;;;17.82;70.81;99475.75;1677662;84;25345;-62
2023/08/01 00:22:02;;;;;;;83.10;78.02;;;;;;;17.81;70.98;99478.87;1677475;85;27352;-63
2023/08/01 00:24:29;;;;;;;60.23;56.42;;;;;;;17.80;70.99;99469.88;1665523;85;25347;-62
2023/08/01 00:26:56;;;;;;;54.15;50.80;;;;;;;17.77;70.90;99467.90;1677485;84;25523;-61
2023/08/01 00:29:24;;;;;;;78.95;74.00;;;;;;;;;;1677466;84;25479;-62
2023/08/01 00:31:51;;;;;;;82.35;77.37;;;;;;;;;;1677589;85;25444;-61
2023/08/01 00:34:18;;;;;;;84.80;79.67;;;;;;;;;;1677473;85;27416;-61
2023/08/01 00:39:07;;;;;;;86.05;80.40;;;;;;;17.86;71.06;99462.94;1924968;74;34608;-61
2023/08/01 00:41:36;;;;;;;83.50;78.28;;;;;;;17.75;71.02;99455.19;1895073;75;25436;-60
2023/08/01 00:44:05;;;;;;;78.47;73.78;;;;;;;17.76;71.03;99455.41;1894817;75;27443;-60
2023/08/01 00:46:34;;;;;;;;;;;;;;;17.76;71.21;99436.82;1897533;75;25314;-60
2023/08/01 00:49:03;;;;;;;77.65;73.07;;;;;;;17.76;71.08;99449.12;1860124;75;25525;-60
2023/08/01 00:51:32;;;;;;;83.22;78.20;;;;;;;;;;1894691;75;25387;-60
2023/08/01 00:54:01;;;;;;;78.97;74.17;;;;;;;;;;1894954;75;25414;-61
2023/08/01 00:56:28;;;;;;;82.53;77.42;;;;;;;;;;1894964;75;28004;-61
2023/08/01 00:58:55;;;;;;;81.17;76.17;;;;;;;;;;1894682;75;25548;-61
2023/08/01 01:01:22;;;;;;;79.75;74.85;;;;;;;;;;1894719;75;25090;-61
2023/08/01 01:03:51;;;;;;;77.92;73.30;;;;;;;;;;1894702;75;25457;-60
2023/08/01 01:06:33;;;;;;;82.17;77.00;;;;;;;;;;1894719;75;25489;-62
2023/08/01 01:09:04;;;;;;;36.80;34.27;;;;;;;;;;1894700;75;27414;-61
2023/08/01 01:11:31;;;;;;;82.33;77.42;;;;;;;;;;1894648;75;25583;-61
2023/08/01 15:10:09;;;;;;;4.95;4.40;;;;;;;22.76;64.78;98798.73;1875500;75;27873;-64
2023/08/01 15:12:35;;;;;;;6.87;4.08;;;;;;;22.54;65.75;98790.95;1829349;78;25500;-63
2023/08/01 15:15:07;;;;;;;5.25;3.95;;;;;;;22.34;66.92;98802.00;1808196;78;27633;-63
2023/08/01 15:17:33;;;;;;;4.85;4.28;;;;;;;22.07;68.81;98802.72;1829359;78;26066;-63
2023/08/01 15:19:59;;;;;;;6.75;4.60;;;;;;;21.72;68.88;98789.80;1829273;78;25592;-62
2023/08/01 15:22:25;;;;;;;6.37;4.30;;;;;;;21.45;70.11;98803.80;1829223;78;27069;-63
2023/08/01 15:24:51;;;;;;;8.45;4.80;;;;;;;21.13;72.42;98807.64;1809088;78;25614;-65
2023/08/01 15:27:18;;;;;;;9.33;4.75;;;;;;;20.76;73.06;98803.28;1829285;78;28106;-65
2023/08/01 15:29:47;;;;;;;6.92;4.20;;;;;;;20.48;74.89;98799.70;1829139;78;25552;-66
2023/08/01 15:32:14;;;;;;;6.15;5.00;;;;;;;20.25;75.81;98789.39;1829209;78;25567;-65
2023/08/01 15:34:41;;;;;;;9.90;5.67;;;;;;;20.07;76.75;98791.56;1829161;78;25604;-65
2023/08/01 15:37:10;;;;;;;9.33;5.35;;;;;;;19.93;77.64;98786.41;1829339;78;25631;-65
2023/08/01 15:39:36;;;;;;;11.40;5.75;;;;;;;19.82;78.71;98790.45;1829319;78;27294;-65
2023/08/01 15:42:07;;;;;;;9.18;6.85;;;;;;;19.72;79.60;98785.26;1829215;78;25526;-65
2023/08/01 15:44:33;;;;;;;9.25;8.18;;;;;;;19.64;80.31;98792.00;1829233;78;25496;-64
2023/08/01 15:46:59;;;;;;;9.78;8.70;;;;;;;19.58;81.30;98784.20;1829206;78;25342;-65
2023/08/01 15:49:26;;;;;;;11.43;9.95;;;;;;;19.54;82.24;98784.81;1829195;78;25679;-64
2023/08/01 15:51:52;;;;;;;12.40;11.22;;;;;;;19.52;83.13;98785.82;1829194;78;27465;-65
2023/08/01 15:54:18;;;;;;;13.75;12.60;;;;;;;19.47;83.82;98790.98;1829090;78;25343;-64
2023/08/01 15:56:44;;;;;;;15.72;14.53;;;;;;;19.46;84.09;98777.86;1829198;78;25512;-64
2023/08/01 15:59:11;;;;;;;21.42;19.80;;;;;;;19.43;84.38;98780.61;1829198;77;25514;-64
2023/08/01 16:01:37;;;;;;;83.87;78.87;;;;;;;19.41;85.03;98785.16;1796496;79;25577;-64
2023/08/01 16:04:06;;;;;;;83.27;78.02;;;;;;;19.43;85.04;98784.73;1829096;78;27436;-62
2023/08/01 16:06:33;;;;;;;84.62;79.55;;;;;;;19.42;85.11;98792.18;1829025;78;25571;-61
2023/08/01 16:08:59;;;;;;;84.05;79.10;;;;;;;19.40;84.62;98787.10;1796403;79;25479;-60
2023/08/01 16:11:25;;;;;;;87.65;82.47;;;;;;;19.40;84.60;98797.30;1829123;77;25345;-63
2023/08/01 16:13:51;;;;;;;83.67;78.75;;;;;;;19.39;84.86;98802.01;1829168;78;25840;-64
2023/08/01 16:16:18;;;;;;;82.55;77.62;;;;;;;19.37;84.93;98796.73;1829178;78;28034;-63
2023/08/01 16:18:44;;;;;;;80.35;75.65;;;;;;;19.39;85.13;98799.84;1829133;78;25493;-64
2023/08/01 16:21:10;;;;;;;85.25;80.00;;;;;;;19.40;85.10;98781.62;1828648;78;25362;-64
2023/08/01 16:23:38;;;;;;;80.60;75.60;;;;;;;19.43;85.03;98811.58;1828562;78;25446;-63
2023/08/01 16:26:04;;;;;;;82.45;77.65;;;;;;;19.46;85.30;98794.31;1828692;78;25429;-60
2023/08/01 16:28:32;;;;;;;83.40;78.50;;;;;;;19.49;85.14;98788.00;1828794;78;27482;-68
2023/08/01 16:30:58;;;;;;;19.82;18.50;;;;;;;19.52;84.58;98782.31;1828575;78;25496;-67
2023/08/01 16:33:26;;;;;;;83.55;77.87;;;;;;;19.55;84.85;98786.98;1808059;78;25521;-68
2023/08/01 16:35:53;;;;;;;82.08;76.90;;;;;;;19.55;84.36;98797.35;1828645;78;25503;-76
2023/08/01 16:38:20;;;;;;;25.60;23.98;;;;;;;;;;1810909;78;25452;-78
2023/08/01 16:40:47;;;;;;;27.42;25.72;;;;;;;;;;1829002;78;27335;-78
2023/08/01 16:43:14;;;;;;;26.42;24.95;;;;;;;;;;1828640;78;25435;-72
2023/08/01 16:45:41;;;;;;;23.60;22.37;;;;;;;;;;1828676;77;25167;-73
2023/08/01 16:48:07;;;;;;;27.65;26.27;;;;;;;;;;1828857;78;25355;-74
2023/08/01 16:50:34;;;;;;;23.12;22.02;;;;;;;;;;1829152;78;25339;-75
2023/08/01 16:53:02;;;;;;;22.27;21.23;;;;;;;;;;1828746;78;27333;-73
2023/08/01 16:55:30;;;;;;;18.07;17.23;;;;;;;;;;1831985;78;25420;-75
2023/08/01 16:57:58;;;;;;;16.62;15.80;;;;;;;;;;1831690;78;25491;-75
2023/08/01 17:00:25;;;;;;;15.63;14.87;;;;;;;;;;1829059;78;25364;-76
2023/08/01 17:02:51;;;;;;;14.05;13.40;;;;;;;;;;1829098;78;25358;-75
2023/08/01 17:05:20;;;;;;;15.53;14.80;;;;;;;;;;1828485;78;27220;-73
2023/08/01 17:07:47;;;;;;;11.88;11.35;;;;;;;;;;1831504;77;25504;-73
2023/08/01 17:10:15;;;;;;;14.63;13.93;;;;;;;;;;1827467;78;25242;-75
2023/08/01 17:12:43;;;;;;;13.90;13.20;;;;;;;;;;1804098;78;25439;-74
2023/08/01 17:15:11;;;;;;;;;;;;;;;;;;1829676;78;25303;-77
2023/08/01 17:17:38;;;;;;;14.20;13.43;;;;;;;;;;1821508;78;27322;-74
2023/08/01 17:20:08;;;;;;;12.13;11.57;;;;;;;;;;1826948;78;25497;-73
2023/08/01 17:22:35;;;;;;;12.80;12.15;;;;;;;;;;1826862;78;25344;-73
2023/08/01 17:25:08;;;;;;;10.58;10.10;;;;;;;;;;1832064;78;25730;-71
